Time;durP1;ratioP1;P1;durP2;ratioP2;P2;SDS_P1;SDS_P2;PMS_P1;PMS_P2;Temp;Humidity;BMP_temperature;BMP_pressure;BME280_temperature;BME280_humidity;BME280_pressure;Samples;Min_cycle;Max_cycle;Signal;HPM_P1;HPM_P2
2023/10/25 00:00:46;;;;;;;8.88;8.02;;;;;;;12.26;100.00;151760.53;10499215;28;20025;-81
2023/10/25 00:05:48;;;;;;;9.73;8.77;;;;;;;12.10;100.00;151721.78;10515602;28;20039;-81
2023/10/25 00:10:49;;;;;;;9.10;8.30;;;;;;;12.17;100.00;151737.28;10532611;28;20097;-80
2023/10/25 00:15:51;;;;;;;8.18;7.45;;;;;;;12.13;100.00;151728.25;10532755;28;20036;-81
2023/10/25 00:20:53;;;;;;;8.30;7.50;;;;;;;12.18;100.00;151741.19;10527225;28;20045;-82
2023/10/25 00:25:55;;;;;;;8.07;7.38;;;;;;;12.33;100.00;151779.94;10495204;28;20049;-83
2023/10/25 00:30:57;;;;;;;8.30;7.60;;;;;;;12.42;100.00;151801.94;10495337;28;20048;-80
2023/10/25 00:35:59;;;;;;;8.57;7.68;;;;;;;12.43;100.00;151804.50;10489430;28;20036;-82
2023/10/25 00:41:01;;;;;;;8.60;7.80;;;;;;;12.35;100.00;151783.81;10488885;28;20399;-83
2023/10/25 00:46:19;;;;;;;8.52;7.82;;;;;;;12.30;100.00;151772.16;10512362;28;20037;-82
2023/10/25 00:51:23;;;;;;;6.80;6.15;;;;;;;12.16;100.00;151734.69;10494957;28;20052;-83
2023/10/25 00:56:26;;;;;;;6.80;6.15;;;;;;;12.26;100.00;151760.53;10494255;28;20059;-81
2023/10/25 01:01:29;;;;;;;5.93;5.43;;;;;;;12.45;100.00;151808.41;10495148;28;20055;-82
2023/10/25 01:06:31;;;;;;;5.25;4.78;;;;;;;12.47;100.00;151814.84;10494656;28;20040;-82
2023/10/25 01:11:33;;;;;;;4.40;4.10;;;;;;;12.50;100.00;151821.34;10505497;28;20070;-80
2023/10/25 01:16:34;;;;;;;4.60;4.20;;;;;;;12.43;100.00;151804.50;10519698;28;20048;-82
2023/10/25 01:21:36;;;;;;;4.47;4.07;;;;;;;12.31;100.00;151773.50;10538286;28;20044;-83
2023/10/25 01:26:38;;;;;;;4.25;3.85;;;;;;;12.30;100.00;151770.88;10525379;28;20062;-80
2023/10/25 01:31:40;;;;;;;3.95;3.55;;;;;;;12.28;100.00;151767.03;10527893;28;20045;-82
2023/10/25 01:36:42;;;;;;;4.18;3.42;;;;;;;12.21;100.00;151747.63;10524677;28;20496;-81
2023/10/25 01:41:44;;;;;;;4.05;3.72;;;;;;;12.05;100.00;151707.56;10483548;28;20048;-83
2023/10/25 01:46:45;;;;;;;4.13;3.50;;;;;;;11.93;100.00;151676.53;10503003;28;20079;-83
2023/10/25 01:51:47;;;;;;;5.82;5.32;;;;;;;12.02;100.00;151699.81;10500654;28;20044;-83
2023/10/25 01:56:49;;;;;;;5.85;5.35;;;;;;;11.80;100.00;151644.19;10497322;28;20116;-83
2023/10/25 02:01:51;;;;;;;6.28;5.65;;;;;;;12.05;100.00;151708.88;10497591;28;20052;-83
2023/10/25 02:06:53;;;;;;;6.15;5.65;;;;;;;12.10;100.00;151721.78;10496990;28;20048;-82
2023/10/25 02:11:55;;;;;;;6.38;5.82;;;;;;;11.98;100.00;151690.75;10497499;28;20470;-82
2023/10/25 02:16:57;;;;;;;6.30;5.80;;;;;;;12.14;100.00;151730.84;10485510;28;20526;-82
2023/10/25 02:21:59;;;;;;;6.70;6.20;;;;;;;11.98;100.00;151690.75;10512661;28;20045;-83
2023/10/25 02:27:01;;;;;;;8.30;7.55;;;;;;;11.93;100.00;151677.84;10497291;28;20067;-83
2023/10/25 02:32:07;;;;;;;8.23;7.57;;;;;;;12.16;100.00;151734.69;10527613;28;20048;-82
2023/10/25 02:37:10;;;;;;;8.95;8.25;;;;;;;11.95;100.00;151682.97;10506517;28;20060;-82
2023/10/25 02:42:12;;;;;;;8.18;7.47;;;;;;;11.94;100.00;151680.41;10506180;28;20045;-82
2023/10/25 02:47:14;;;;;;;8.50;7.90;;;;;;;12.18;100.00;151741.19;10502793;28;20045;-82
2023/10/25 02:52:15;;;;;;;8.23;7.53;;;;;;;12.19;100.00;151743.75;10521915;28;20090;-82
2023/10/25 02:57:18;;;;;;;8.85;8.15;;;;;;;12.12;100.00;151726.94;10509679;28;20040;-82
2023/10/25 03:02:19;;;;;;;7.82;7.22;;;;;;;12.06;100.00;151710.16;10509498;28;20154;-82
2023/10/25 03:07:22;;;;;;;8.52;7.72;;;;;;;12.12;100.00;151725.63;10490361;28;20198;-83
2023/10/25 03:12:24;;;;;;;9.43;8.65;;;;;;;12.19;100.00;151742.47;10492680;28;20098;-80
2023/10/25 03:17:29;;;;;;;8.88;8.20;;;;;;;11.88;100.00;151664.91;10491470;28;20114;-82
2023/10/25 03:22:32;;;;;;;9.13;8.35;;;;;;;11.74;100.00;151628.69;10501387;28;20048;-82
2023/10/25 03:27:34;;;;;;;9.45;8.75;;;;;;;11.92;100.00;151675.25;10470997;28;20107;-79
2023/10/25 03:32:36;;;;;;;11.18;8.63;;;;;;;12.08;100.00;151716.59;10519631;28;20043;-81
2023/10/25 03:37:41;;;;;;;8.73;8.02;;;;;;;12.02;100.00;151701.09;10501430;28;20037;-80
2023/10/25 03:42:43;;;;;;;6.82;6.32;;;;;;;11.85;100.00;151657.13;10497099;28;20099;-80
2023/10/25 03:47:44;;;;;;;8.23;7.63;;;;;;;11.90;100.00;151670.06;10492949;28;20066;-80
2023/10/25 03:52:50;;;;;;;7.47;6.88;;;;;;;11.82;100.00;151649.31;10491264;28;20060;-83
2023/10/25 03:57:52;;;;;;;7.95;7.35;;;;;;;11.64;100.00;151604.09;10515475;28;20090;-84
2023/10/25 04:02:53;;;;;;;6.95;6.45;;;;;;;11.79;100.00;151642.88;10480027;28;20504;-82
2023/10/25 04:07:55;;;;;;;7.68;7.07;;;;;;;11.81;100.00;151648.03;10505709;28;20067;-82
2023/10/25 04:12:57;;;;;;;8.30;7.60;;;;;;;11.52;100.00;151574.41;10526046;28;20048;-81
2023/10/25 04:18:02;;;;;;;9.00;8.20;;;;;;;11.47;100.00;151561.50;10522612;28;20048;-83
2023/10/25 04:23:04;;;;;;;8.85;8.15;;;;;;;11.45;100.00;151555.00;10484302;28;20055;-82
2023/10/25 04:28:06;;;;;;;8.30;7.70;;;;;;;11.79;100.00;151642.88;10501902;28;20037;-82
2023/10/25 04:33:08;;;;;;;8.95;8.25;;;;;;;11.60;100.00;151593.81;10501751;28;20063;-82
2023/10/25 04:38:10;;;;;;;9.48;8.73;;;;;;;11.59;100.00;151592.47;10501317;28;20076;-80
2023/10/25 04:43:12;;;;;;;8.38;7.78;;;;;;;11.46;100.00;151558.88;10499625;28;20131;-81
2023/10/25 04:48:14;;;;;;;8.45;7.75;;;;;;;11.65;100.00;151606.72;10514434;28;20127;-81
2023/10/25 04:53:16;;;;;;;9.23;8.38;;;;;;;11.51;100.00;151570.50;10495971;28;20048;-81
2023/10/25 04:58:19;;;;;;;9.20;8.32;;;;;;;11.46;100.00;151558.88;10503432;28;20484;-83
2023/10/25 05:03:21;;;;;;;8.52;7.82;;;;;;;11.32;100.00;151524.00;10486866;28;20044;-82
2023/10/25 05:08:23;;;;;;;10.50;9.50;;;;;;;11.17;100.00;151483.97;10503450;28;20571;-82
2023/10/25 05:13:25;;;;;;;8.65;7.95;;;;;;;11.41;100.00;151544.69;10501427;28;20048;-83
2023/10/25 05:18:27;;;;;;;7.68;7.07;;;;;;;11.48;100.00;151562.78;10482760;28;20049;-82
2023/10/25 05:23:30;;;;;;;8.38;7.75;;;;;;;11.39;100.00;151540.81;10483457;28;20041;-83
2023/10/25 05:28:32;;;;;;;12.52;10.25;;;;;;;11.19;100.00;151489.13;10517869;28;20036;-83
2023/10/25 05:33:35;;;;;;;7.90;7.20;;;;;;;11.32;100.00;151522.72;10536145;28;20040;-83
2023/10/25 05:38:37;;;;;;;8.60;8.00;;;;;;;11.38;100.00;151538.25;10525245;28;20047;-84
2023/10/25 05:43:43;;;;;;;8.07;7.38;;;;;;;11.28;100.00;151512.38;10499750;28;20105;-83
2023/10/25 05:48:45;;;;;;;8.97;8.07;;;;;;;11.06;100.00;151456.81;10515689;28;20524;-83
2023/10/25 05:53:47;;;;;;;9.15;8.45;;;;;;;11.22;100.00;151496.88;10480402;28;20102;-82
2023/10/25 05:58:49;;;;;;;8.50;7.78;;;;;;;11.46;100.00;151558.88;10497667;28;20068;-81
2023/10/25 06:03:53;;;;;;;7.50;6.90;;;;;;;11.37;100.00;151536.91;10504919;28;20086;-82
2023/10/25 06:08:55;;;;;;;8.15;7.50;;;;;;;11.17;100.00;151483.97;10496468;28;20519;-81
2023/10/25 06:13:57;;;;;;;8.25;7.55;;;;;;;11.24;100.00;151503.31;10509910;28;20044;-84
2023/10/25 06:19:00;;;;;;;8.80;8.05;;;;;;;11.23;100.00;151500.75;10509923;28;20044;-83
2023/10/25 06:24:02;;;;;;;9.30;8.50;;;;;;;11.05;100.00;151454.25;10492893;28;20041;-81
2023/10/25 06:29:03;;;;;;;9.15;8.35;;;;;;;11.06;100.00;151456.81;10492913;28;20044;-82
2023/10/25 06:34:05;;;;;;;9.00;8.20;;;;;;;11.20;100.00;151491.69;10493215;28;20048;-81
2023/10/25 06:39:08;;;;;;;8.73;8.02;;;;;;;11.36;100.00;151533.03;10492570;28;20511;-82
2023/10/25 06:44:11;;;;;;;9.32;8.52;;;;;;;11.39;100.00;151540.81;10508491;28;20040;-82
2023/10/25 06:49:13;;;;;;;9.23;8.43;;;;;;;11.26;100.00;151507.22;10509705;28;20037;-82
2023/10/25 06:54:16;;;;;;;8.95;8.25;;;;;;;11.28;100.00;151512.38;10509948;28;20123;-82
2023/10/25 06:59:18;;;;;;;10.07;9.18;;;;;;;11.22;100.00;151496.88;10508998;28;20041;-81
2023/10/25 07:04:22;;;;;;;12.60;11.50;;;;;;;11.24;100.00;151503.31;10508053;28;20071;-82
2023/10/25 07:09:24;;;;;;;13.70;12.40;;;;;;;11.21;100.00;151495.59;10491541;28;20032;-82
2023/10/25 07:14:26;;;;;;;13.00;11.90;;;;;;;11.22;100.00;151498.16;10508466;28;20058;-82
2023/10/25 07:19:28;;;;;;;13.93;12.65;;;;;;;11.22;100.00;151496.88;10491105;28;20071;-81
2023/10/25 07:24:30;;;;;;;11.25;10.23;;;;;;;11.09;100.00;151464.59;10508141;28;20115;-82
2023/10/25 07:29:31;;;;;;;16.83;13.70;;;;;;;11.05;100.00;151454.25;10508297;28;20068;-82
2023/10/25 07:34:33;;;;;;;16.70;13.45;;;;;;;11.05;100.00;151454.25;10473501;28;20048;-82
2023/10/25 07:39:35;;;;;;;152.07;50.28;;;;;;;10.95;100.00;151428.44;10475397;28;20052;-80
2023/10/25 07:44:37;;;;;;;16.35;13.98;;;;;;;10.95;100.00;151429.72;10520287;28;20079;-80
2023/10/25 07:49:45;;;;;;;10.85;9.95;;;;;;;11.06;100.00;151456.81;10510274;28;20393;-82
2023/10/25 07:54:47;;;;;;;13.77;12.48;;;;;;;11.07;100.00;151460.72;10495046;28;20048;-80
2023/10/25 07:59:49;;;;;;;12.95;11.63;;;;;;;11.20;100.00;151493.03;10500086;28;20032;-84
2023/10/25 08:04:50;;;;;;;10.98;10.07;;;;;;;11.30;100.00;151517.56;10513181;28;20041;-82
2023/10/25 08:09:52;;;;;;;13.50;12.38;;;;;;;11.42;100.00;151547.25;10514827;28;20128;-83
2023/10/25 08:14:54;;;;;;;9.32;8.60;;;;;;;11.62;100.00;151598.94;10494242;28;20048;-81
2023/10/25 08:19:56;;;;;;;8.95;8.07;;;;;;;11.60;100.00;151593.81;10496222;28;20047;-81
2023/10/25 08:24:58;;;;;;;7.78;7.07;;;;;;;11.77;100.00;151636.41;10513140;28;20071;-81
2023/10/25 08:30:00;;;;;;;6.72;6.22;;;;;;;11.95;100.00;151681.69;10512410;28;20075;-79
2023/10/25 08:35:01;;;;;;;5.70;5.20;;;;;;;12.03;100.00;151703.66;10510797;28;20120;-80
2023/10/25 08:40:03;;;;;;;4.82;4.43;;;;;;;12.05;100.00;151707.56;10507866;28;20028;-80
2023/10/25 08:45:06;;;;;;;4.63;4.22;;;;;;;11.96;100.00;151684.31;10513006;28;20060;-80
2023/10/25 08:50:08;;;;;;;4.32;4.03;;;;;;;12.07;97.23;151712.72;10507363;28;20053;-80
2023/10/25 08:55:10;;;;;;;4.60;3.72;;;;;;;12.02;98.75;151701.09;10514254;28;20045;-83
2023/10/25 09:00:13;;;;;;;4.47;4.18;;;;;;;11.99;99.09;151693.31;10513870;28;20075;-80
2023/10/25 09:05:15;;;;;;;4.55;4.15;;;;;;;11.87;100.00;151662.34;10513139;28;20044;-80
2023/10/25 09:10:19;;;;;;;4.18;3.88;;;;;;;12.01;99.61;151697.22;10512498;28;20156;-81
2023/10/25 09:15:29;;;;;;;2.78;2.58;;;;;;;12.11;99.43;151724.34;10534133;28;20025;-81
2023/10/25 09:20:32;;;;;;;2.47;2.28;;;;;;;12.17;97.43;151737.28;10554663;28;20084;-80
2023/10/25 09:25:34;;;;;;;2.17;1.98;;;;;;;12.25;93.69;151757.97;10554822;28;20040;-79
2023/10/25 09:30:35;;;;;;;1.85;1.50;;;;;;;12.50;89.99;151821.34;10549789;28;20097;-80
2023/10/25 09:35:37;;;;;;;1.65;1.20;;;;;;;12.66;87.70;151862.72;10536062;28;20025;-79
2023/10/25 09:40:41;;;;;;;1.85;1.50;;;;;;;12.67;87.47;151864.03;10552306;28;20037;-81
2023/10/25 09:45:50;;;;;;;0.90;0.90;;;;;;;12.87;81.54;151915.72;10536766;28;20043;-79
2023/10/25 09:51:06;;;;;;;1.33;1.10;;;;;;;12.92;83.79;151928.66;10536984;28;20036;-79
2023/10/25 09:56:08;;;;;;;0.63;0.63;;;;;;;12.98;79.78;151942.91;10553758;28;20058;-81
2023/10/25 10:01:10;;;;;;;0.40;0.38;;;;;;;13.22;76.25;152005.03;10534198;28;20021;-80
2023/10/25 10:06:37;;;;;;;0.60;0.35;;;;;;;13.30;73.95;152025.72;10536262;28;20040;-78
2023/10/25 10:11:47;;;;;;;1.08;0.50;;;;;;;13.65;71.57;152112.44;10553239;28;20032;-80
2023/10/25 10:16:49;;;;;;;0.28;0.25;;;;;;;13.66;70.28;152115.03;10535446;28;20032;-78
2023/10/25 10:22:05;;;;;;;0.20;0.20;;;;;;;14.14;69.03;152238.00;10535270;28;20104;-79
2023/10/25 10:27:08;;;;;;;1.13;0.30;;;;;;;14.67;66.47;152371.41;10552449;28;20056;-79
2023/10/25 10:32:10;;;;;;;1.48;0.80;;;;;;;15.07;67.15;152475.03;10550879;28;20040;-80
2023/10/25 10:37:21;;;;;;;0.70;0.70;;;;;;;15.09;70.52;152480.19;10545965;28;20037;-82
2023/10/25 10:42:29;;;;;;;0.60;0.60;;;;;;;15.13;71.50;152490.53;10550294;28;20020;-79
2023/10/25 10:47:47;;;;;;;0.80;0.45;;;;;;;15.30;66.68;152533.31;10551846;28;20027;-81
2023/10/25 10:52:50;;;;;;;0.75;0.50;;;;;;;15.87;65.49;152678.50;10551729;28;20029;-80
2023/10/25 10:57:52;;;;;;;0.60;0.60;;;;;;;15.97;66.97;152703.13;10551207;28;20032;-80
2023/10/25 11:03:00;;;;;;;0.45;0.45;;;;;;;16.21;65.20;152764.09;10548267;28;20033;-81
2023/10/25 11:08:02;;;;;;;0.50;0.50;;;;;;;16.75;61.82;152900.28;10531733;28;20040;-81
2023/10/25 11:13:09;;;;;;;0.63;0.57;;;;;;;16.53;61.75;152844.47;10548044;28;20043;-80
2023/10/25 11:18:10;;;;;;;1.10;0.52;;;;;;;16.46;62.32;152827.59;10548907;28;20032;-79
2023/10/25 11:23:14;;;;;;;0.55;0.50;;;;;;;16.37;60.88;152804.25;10533862;28;20025;-79
2023/10/25 11:28:18;;;;;;;0.43;0.30;;;;;;;16.24;64.33;152771.81;10549720;28;20036;-80
2023/10/25 11:33:20;;;;;;;0.57;0.40;;;;;;;16.60;60.45;152863.94;10550644;28;20027;-78
2023/10/25 11:38:25;;;;;;;0.40;0.40;;;;;;;16.45;61.60;152825.00;10516477;28;20024;-79
2023/10/25 11:43:28;;;;;;;0.30;0.30;;;;;;;16.57;61.69;152856.13;10533708;28;20032;-81
2023/10/25 11:48:30;;;;;;;0.40;0.32;;;;;;;16.86;57.46;152928.78;10533250;28;20025;-80
2023/10/25 11:53:32;;;;;;;0.30;0.20;;;;;;;16.73;55.83;152896.34;10533210;28;20035;-81
2023/10/25 11:58:33;;;;;;;0.28;0.25;;;;;;;15.83;62.32;152668.13;10545077;28;20042;-78
2023/10/25 12:03:38;;;;;;;0.30;0.30;;;;;;;15.81;61.96;152661.69;10533132;28;20069;-81
2023/10/25 12:08:41;;;;;;;0.30;0.22;;;;;;;15.69;65.05;152631.84;10532989;28;20028;-81
2023/10/25 12:13:43;;;;;;;1.02;0.40;;;;;;;15.54;63.87;152594.25;10533227;28;20025;-80
2023/10/25 12:18:44;;;;;;;0.55;0.40;;;;;;;15.19;63.78;152503.53;10516219;28;20028;-78
2023/10/25 12:23:46;;;;;;;0.38;0.38;;;;;;;14.99;64.39;152453.00;10549738;28;20044;-80
2023/10/25 12:28:48;;;;;;;0.60;0.40;;;;;;;15.26;64.83;152522.94;10549750;28;20090;-80
2023/10/25 12:33:49;;;;;;;0.93;0.35;;;;;;;15.06;67.30;152472.44;10532118;28;20054;-81
2023/10/25 12:38:51;;;;;;;0.20;0.20;;;;;;;14.88;66.01;152425.81;10532093;28;20039;-82
2023/10/25 12:43:53;;;;;;;0.70;0.55;;;;;;;15.06;64.91;152472.44;10537834;28;20033;-79
2023/10/25 12:48:55;;;;;;;0.40;0.25;;;;;;;15.20;63.79;152506.13;10537495;28;20090;-82
2023/10/25 12:53:57;;;;;;;0.17;0.17;;;;;;;15.58;61.56;152603.28;10556454;28;20036;-81
2023/10/25 12:58:59;;;;;;;0.60;0.20;;;;;;;15.24;60.46;152516.50;10556407;28;20028;-80
2023/10/25 13:04:01;;;;;;;0.50;0.40;;;;;;;15.14;63.20;152491.88;10538397;28;20048;-79
2023/10/25 13:09:03;;;;;;;0.20;0.20;;;;;;;15.08;60.80;152477.59;10552882;28;20052;-81
2023/10/25 13:14:05;;;;;;;0.47;0.28;;;;;;;14.89;63.67;152429.69;10537983;28;20104;-79
2023/10/25 13:19:06;;;;;;;0.10;0.08;;;;;;;14.90;58.16;152430.97;10538049;28;20044;-84
2023/10/25 13:24:12;;;;;;;0.10;0.10;;;;;;;14.59;56.90;152351.97;10555100;28;20046;-80
2023/10/25 13:29:14;;;;;;;0.50;0.35;;;;;;;14.98;58.86;152451.72;10536354;28;20052;-79
2023/10/25 13:34:15;;;;;;;0.43;0.10;;;;;;;14.94;59.11;152440.03;10552760;28;20025;-80
2023/10/25 13:39:17;;;;;;;0.38;0.13;;;;;;;14.73;61.81;152388.22;10532667;28;20052;-79
2023/10/25 13:44:19;;;;;;;0.30;0.10;;;;;;;14.74;59.94;152389.50;10550232;28;20040;-80
2023/10/25 13:49:21;;;;;;;0.20;0.10;;;;;;;15.00;60.21;152456.88;10548344;28;20044;-80
2023/10/25 13:54:23;;;;;;;0.10;0.10;;;;;;;14.63;62.55;152363.63;10541516;28;20103;-80
2023/10/25 13:59:26;;;;;;;0.50;0.20;;;;;;;14.51;62.04;152331.25;10530794;28;20112;-80
2023/10/25 14:04:32;;;;;;;0.25;0.20;;;;;;;14.17;61.27;152244.47;10539362;28;20139;-81
2023/10/25 14:09:34;;;;;;;0.10;0.08;;;;;;;14.01;63.35;152205.63;10505731;28;20086;-83
2023/10/25 14:14:39;;;;;;;1.00;0.88;;;;;;;13.77;65.57;152144.81;10537752;28;20036;-83
2023/10/25 14:20:01;;;;;;;0.10;0.10;;;;;;;13.80;65.97;152151.25;10521806;28;20052;-81
2023/10/25 14:25:22;;;;;;;0.43;0.20;;;;;;;13.87;66.45;152169.38;10493907;28;20075;-81
2023/10/25 14:30:24;;;;;;;0.20;0.20;;;;;;;14.11;63.99;152231.50;10549966;28;20039;-80
2023/10/25 14:35:26;;;;;;;0.35;0.20;;;;;;;13.79;66.24;152149.97;10549580;28;20039;-81
2023/10/25 14:40:28;;;;;;;0.50;0.30;;;;;;;14.02;65.66;152206.91;10546847;28;20044;-82
2023/10/25 14:45:36;;;;;;;0.40;0.30;;;;;;;14.12;66.35;152234.13;10541906;28;20424;-83
2023/10/25 14:50:38;;;;;;;0.30;0.30;;;;;;;14.04;66.61;152212.09;10518412;28;20131;-82
2023/10/25 14:55:40;;;;;;;0.35;0.20;;;;;;;13.72;70.26;152130.53;10531345;28;20028;-82
2023/10/25 15:00:42;;;;;;;1.20;1.05;;;;;;;13.67;71.51;152118.88;10511084;28;20048;-82
2023/10/25 15:05:51;;;;;;;0.50;0.30;;;;;;;13.43;72.43;152058.09;10524229;28;20045;-81
2023/10/25 15:10:53;;;;;;;1.00;0.45;;;;;;;13.35;72.67;152037.38;10529167;28;20025;-80
2023/10/25 15:16:00;;;;;;;0.68;0.32;;;;;;;13.27;74.08;152016.66;10529816;28;20047;-81
2023/10/25 15:21:04;;;;;;;0.55;0.30;;;;;;;13.52;72.99;152080.09;10499720;28;20376;-84
2023/10/25 15:26:06;;;;;;;0.70;0.52;;;;;;;13.30;74.23;152025.72;10514697;28;20044;-83
2023/10/25 15:31:08;;;;;;;1.00;0.43;;;;;;;13.07;75.92;151967.47;10503300;28;20036;-81
2023/10/25 15:36:10;;;;;;;0.40;0.40;;;;;;;12.88;77.82;151919.63;10502409;28;20108;-82
2023/10/25 15:41:19;;;;;;;0.70;0.60;;;;;;;12.69;79.13;151869.16;10496091;28;20036;-81
2023/10/25 15:46:28;;;;;;;1.42;0.70;;;;;;;12.38;82.53;151791.59;10512007;28;20124;-81
2023/10/25 15:51:32;;;;;;;1.63;0.70;;;;;;;12.16;84.75;151736.00;10500178;28;20041;-81
2023/10/25 15:56:34;;;;;;;1.27;0.98;;;;;;;12.04;86.57;151706.28;10498936;28;20052;-82
2023/10/25 16:01:36;;;;;;;1.52;1.30;;;;;;;11.83;89.71;151653.28;10493691;28;20076;-82
2023/10/25 16:06:52;;;;;;;2.50;1.30;;;;;;;11.91;90.11;151671.34;10499159;28;20068;-82
2023/10/25 16:11:54;;;;;;;1.92;1.60;;;;;;;12.00;90.92;151695.94;10498406;28;20037;-84
2023/10/25 16:16:56;;;;;;;1.17;1.08;;;;;;;11.70;92.64;151618.34;10532809;28;20100;-83
2023/10/25 16:21:59;;;;;;;1.00;0.93;;;;;;;11.40;94.19;151542.09;10545575;28;20044;-82
2023/10/25 16:27:00;;;;;;;1.02;1.02;;;;;;;11.45;95.03;151556.31;10513888;28;20048;-84
2023/10/25 16:32:03;;;;;;;2.75;0.80;;;;;;;11.47;94.81;151561.50;10507039;28;20131;-84
2023/10/25 16:37:05;;;;;;;3.00;1.13;;;;;;;11.54;95.00;151579.56;10490887;28;20044;-82
2023/10/25 16:42:11;;;;;;;2.60;1.20;;;;;;;11.73;93.86;151627.41;10511185;28;20044;-81
2023/10/25 16:47:13;;;;;;;1.70;1.50;;;;;;;11.65;94.13;151606.72;10502515;28;20295;-83
2023/10/25 16:52:17;;;;;;;1.30;1.17;;;;;;;11.89;88.73;151666.19;10494773;28;20036;-83
2023/10/25 16:57:19;;;;;;;2.53;1.30;;;;;;;11.72;89.72;151624.78;10495219;28;20083;-82
2023/10/25 17:02:21;;;;;;;1.23;1.00;;;;;;;11.78;87.86;151640.31;10496749;28;20033;-82
2023/10/25 17:07:23;;;;;;;1.30;1.13;;;;;;;11.72;88.62;151623.50;10495226;28;20051;-82
2023/10/25 17:12:24;;;;;;;1.33;0.90;;;;;;;11.65;88.31;151605.44;10496126;28;20040;-81
2023/10/25 17:17:30;;;;;;;1.88;1.13;;;;;;;11.98;82.92;151690.75;10495224;28;20115;-82
2023/10/25 17:22:32;;;;;;;1.65;1.08;;;;;;;11.79;85.37;151641.59;10496636;28;20040;-83
2023/10/25 17:27:34;;;;;;;1.13;0.90;;;;;;;11.83;84.74;151653.28;10511123;28;20032;-82
2023/10/25 17:32:36;;;;;;;1.00;0.90;;;;;;;11.74;84.68;151628.69;10537493;28;20435;-81
2023/10/25 17:37:42;;;;;;;2.17;1.58;;;;;;;11.92;85.70;151675.25;10520642;28;20135;-83
2023/10/25 17:42:45;;;;;;;0.93;0.82;;;;;;;11.94;85.07;151679.13;10492118;28;20052;-82
2023/10/25 17:47:56;;;;;;;1.25;0.90;;;;;;;11.94;86.95;151679.13;10517907;28;20048;-84
2023/10/25 17:53:03;;;;;;;0.93;0.77;;;;;;;11.84;86.79;151654.56;10505230;28;20029;-83
2023/10/25 17:58:11;;;;;;;1.25;0.98;;;;;;;11.80;89.51;151645.47;10508134;28;20048;-82
2023/10/25 18:03:15;;;;;;;1.20;0.80;;;;;;;11.98;86.74;151690.75;10502905;28;20064;-82
2023/10/25 18:08:23;;;;;;;2.25;0.95;;;;;;;11.72;90.45;151624.78;10497960;28;20052;-82
2023/10/25 18:13:29;;;;;;;1.00;0.90;;;;;;;11.62;94.83;151598.94;10499801;28;20048;-82
2023/10/25 18:18:34;;;;;;;1.05;0.95;;;;;;;11.45;99.44;151556.31;10514826;28;20037;-84
2023/10/25 18:23:41;;;;;;;1.52;1.30;;;;;;;11.41;100.00;151545.97;10541324;28;20060;-82
2023/10/25 18:28:45;;;;;;;1.48;1.30;;;;;;;11.39;100.00;151540.81;10500932;28;20056;-80
2023/10/25 18:33:51;;;;;;;1.90;1.30;;;;;;;11.35;100.00;151530.47;10493278;28;20048;-83
2023/10/25 18:38:56;;;;;;;1.80;1.52;;;;;;;11.25;100.00;151504.66;10497054;28;20056;-83
2023/10/25 18:44:01;;;;;;;2.33;1.50;;;;;;;11.28;100.00;151512.38;10512470;28;20416;-83
2023/10/25 18:49:15;;;;;;;2.25;1.83;;;;;;;11.35;100.00;151531.75;10494204;28;20044;-82
2023/10/25 18:54:34;;;;;;;2.47;1.30;;;;;;;11.08;100.00;151463.31;10496003;28;20076;-81
2023/10/25 18:59:38;;;;;;;2.00;1.80;;;;;;;11.21;100.00;151494.31;10464335;28;20048;-82
2023/10/25 19:04:39;;;;;;;5.82;1.80;;;;;;;11.21;100.00;151495.59;10456625;28;20057;-83
2023/10/25 19:10:01;;;;;;;2.17;1.77;;;;;;;11.01;100.00;151443.91;10453798;28;20051;-81
2023/10/25 19:15:23;;;;;;;2.30;2.03;;;;;;;11.21;100.00;151495.59;10484608;28;20049;-83
2023/10/25 19:20:26;;;;;;;2.17;1.98;;;;;;;11.11;100.00;151471.06;10469884;28;20044;-83
2023/10/25 19:25:28;;;;;;;2.65;2.45;;;;;;;11.04;100.00;151452.97;10453720;28;20044;-83
2023/10/25 19:30:34;;;;;;;2.25;1.80;;;;;;;11.05;100.00;151455.53;10438849;28;20041;-81
2023/10/25 19:35:36;;;;;;;2.17;1.98;;;;;;;11.08;100.00;151463.31;10468571;28;20104;-79
2023/10/25 19:40:42;;;;;;;1.98;1.80;;;;;;;11.09;100.00;151465.88;10496363;28;20045;-82
2023/10/25 19:45:46;;;;;;;1.95;1.75;;;;;;;11.13;100.00;151473.63;10474408;28;20071;-79
2023/10/25 19:50:58;;;;;;;2.55;1.75;;;;;;;11.11;100.00;151469.72;10473137;28;20041;-82
2023/10/25 19:56:00;;;;;;;1.60;1.50;;;;;;;11.07;100.00;151459.44;10486520;28;20052;-81
2023/10/25 20:01:04;;;;;;;2.15;1.95;;;;;;;11.10;100.00;151467.16;10499786;28;20048;-82
2023/10/25 20:06:07;;;;;;;2.38;1.80;;;;;;;11.12;100.00;151472.34;10460208;28;20056;-82
2023/10/25 20:11:13;;;;;;;;;;;;;;;11.11;100.00;151471.06;10458321;28;20045;-81
2023/10/25 20:16:18;;;;;;;2.30;2.05;;;;;;;11.11;100.00;151471.06;10456571;28;19944;-81
2023/10/25 20:21:19;;;;;;;1.77;1.67;;;;;;;10.95;100.00;151428.44;10438797;28;20045;-81
2023/10/25 20:26:21;;;;;;;2.13;1.92;;;;;;;11.01;100.00;151443.91;10457423;28;20044;-81
2023/10/25 20:31:35;;;;;;;2.38;2.17;;;;;;;10.93;100.00;151424.53;10471568;28;20041;-82
2023/10/25 20:36:41;;;;;;;2.28;1.77;;;;;;;11.08;100.00;151463.31;10460316;28;20076;-83
2023/10/25 20:41:43;;;;;;;4.60;1.93;;;;;;;10.99;100.00;151440.06;10462215;28;20104;-81
2023/10/25 20:46:48;;;;;;;3.00;2.40;;;;;;;11.05;100.00;151455.53;10479761;28;20067;-83
2023/10/25 20:51:49;;;;;;;2.67;2.30;;;;;;;11.03;100.00;151450.41;10495967;28;20052;-82
2023/10/25 20:56:52;;;;;;;2.40;2.20;;;;;;;10.88;100.00;151410.34;10486428;28;20060;-79
2023/10/25 21:01:53;;;;;;;2.40;2.20;;;;;;;11.03;100.00;151450.41;10486912;28;20078;-81
2023/10/25 21:06:55;;;;;;;1.73;1.55;;;;;;;10.97;100.00;151433.56;10521228;28;20055;-79
2023/10/25 21:11:57;;;;;;;2.30;2.05;;;;;;;11.03;100.00;151450.41;10527719;28;20039;-79
2023/10/25 21:16:59;;;;;;;3.50;2.40;;;;;;;11.02;100.00;151446.47;10534402;28;20040;-79
2023/10/25 21:22:00;;;;;;;2.20;2.00;;;;;;;10.98;100.00;151437.47;10520331;28;20044;-80
2023/10/25 21:27:02;;;;;;;2.65;2.45;;;;;;;10.99;100.00;151438.78;10508256;28;20051;-81
2023/10/25 21:32:05;;;;;;;5.65;2.13;;;;;;;10.93;100.00;151424.53;10506280;28;20039;-80
2023/10/25 21:37:07;;;;;;;3.08;2.33;;;;;;;10.91;100.00;151419.38;10505520;28;20044;-81
2023/10/25 21:42:08;;;;;;;2.67;2.47;;;;;;;10.92;100.00;151421.94;10520571;28;20086;-81
2023/10/25 21:47:10;;;;;;;8.02;2.40;;;;;;;10.93;100.00;151423.25;10504732;28;20504;-81
2023/10/25 21:52:14;;;;;;;2.80;2.60;;;;;;;10.89;100.00;151414.25;10504588;28;20048;-81
2023/10/25 21:57:21;;;;;;;2.55;2.35;;;;;;;10.72;100.00;151370.34;10487295;28;20045;-80
2023/10/25 22:02:28;;;;;;;2.45;2.25;;;;;;;10.77;100.00;151383.22;10501379;28;20044;-82
2023/10/25 22:07:30;;;;;;;2.55;2.35;;;;;;;10.72;100.00;151371.63;10502911;28;20060;-82
2023/10/25 22:12:32;;;;;;;2.33;2.13;;;;;;;10.80;100.00;151390.94;10497503;28;20108;-79
2023/10/25 22:17:34;;;;;;;2.47;2.22;;;;;;;10.85;100.00;151403.91;10518465;28;20072;-80
2023/10/25 22:22:36;;;;;;;3.53;2.40;;;;;;;10.82;100.00;151397.44;10523087;28;20520;-79
2023/10/25 22:27:38;;;;;;;2.40;2.20;;;;;;;10.74;100.00;151375.47;10526040;28;20056;-80
2023/10/25 22:32:39;;;;;;;2.50;2.30;;;;;;;10.86;100.00;151406.47;10509251;28;20135;-80
2023/10/25 22:37:41;;;;;;;2.67;2.47;;;;;;;10.89;100.00;151412.91;10509060;28;20052;-78
2023/10/25 22:42:43;;;;;;;4.13;2.83;;;;;;;10.89;100.00;151414.25;10503347;28;20068;-80
2023/10/25 22:47:45;;;;;;;4.15;3.15;;;;;;;10.75;100.00;151378.03;10497135;28;20062;-81
2023/10/25 22:52:47;;;;;;;2.50;2.30;;;;;;;10.75;100.00;151378.03;10498714;28;20090;-80
2023/10/25 22:57:51;;;;;;;3.05;2.75;;;;;;;10.85;100.00;151403.91;10502035;28;20048;-80
2023/10/25 23:02:52;;;;;;;4.07;2.75;;;;;;;10.68;100.00;151361.28;10486198;28;20056;-80